Current Weather

Patuxent River Nas/Trapnell Fld

Patuxent River, Maryland (KNHK)

Report from: Tuesday, July 16, 2024 10:52 AM EDT
Current time: Tuesday, July 16, 2024 12:02 PM EDT

Nearby weather – Weather history – Daily summaries
Weather forecast

Temperature32.8°C (91.0°F)
Heat index40.4°C (104.6°F)
Dew point25.0°C (77.0°F)
Winds 5 kts (2.6 m/s, 5.8 mph) South-Southwest (210°)
Visibility10 mi. (16.1 km)
Clouds Sky clear
Altimeter29.87 in.Hg (1012 mB)
Relative humidity64 %
Density altitude2,516 ft. (767 m)
Sea-level pressure101.1 kPa (1011 mB, 29.86 in.Hg)
Remarks System requires maintenance
Automated weather observing station with precipitation discriminator
Sky condition at secondary location not available
Secondary visibility sensor not operating at location
Pressure falling more quickly
Flight conditions Visual Meteorological Conditions
Raw dataKNHK 161452Z 21005KT 10SM CLR 33/25 A2987 RMK AO2 SLP113 T03280250 58005 CHINO RY24 VISNO RY24 $
An error has occurred. This application may no longer respond until reloaded. Reload 🗙